Time;durP1;ratioP1;P1;durP2;ratioP2;P2;SDS_P1;SDS_P2;PMS_P1;PMS_P2;Temp;Humidity;BMP_temperature;BMP_pressure;BME280_temperature;BME280_humidity;BME280_pressure;Samples;Min_cycle;Max_cycle;Signal;HPM_P1;HPM_P2
2023/03/06 04:47:20;;;;;;;;;;;2.40;99.90;;;;;;5137858;23;19933;-80
2023/03/06 04:49:50;;;;;;;;;;;2.40;99.90;;;;;;4981113;28;19926;-80
2023/03/06 04:52:20;;;;;;;;;;;2.30;99.90;;;;;;4990825;28;20402;-80
2023/03/06 04:58:01;;;;;;;;;;;2.30;99.90;;;;;;5561364;23;20020;-79
2023/03/06 05:00:30;;;;;;;;;;;2.30;99.90;;;;;;4995595;28;19938;-81
2023/03/06 05:05:34;;;;;;;;;;;2.30;99.90;;;;;;5295875;23;19930;-80
2023/03/06 05:37:48;;;;;;;;;;;2.20;99.90;;;;;;5957115;23;22096;-78
2023/03/06 05:40:15;;;;;;;;;;;2.20;99.90;;;;;;4977770;28;20384;-77
2023/03/06 05:42:42;;;;;;;;;;;2.20;99.90;;;;;;4976194;28;19930;-80
2023/03/06 05:45:10;;;;;;;;;;;2.20;99.90;;;;;;4958718;28;19941;-80
2023/03/06 05:47:37;;;;;;;;;;;2.20;99.90;;;;;;4965750;28;20016;-80
2023/03/06 05:50:07;;;;;;;;;;;2.20;99.90;;;;;;4959767;28;19933;-80
2023/03/06 05:52:38;;;;;;;;;;;2.20;99.90;;;;;;4966618;28;21655;-79
2023/03/06 05:55:11;;;;;;;;;;;2.20;99.90;;;;;;4954566;28;19958;-80
2023/03/06 05:57:38;;;;;;;;;;;2.20;99.90;;;;;;4969995;28;20017;-79
2023/03/06 06:00:06;;;;;;;;;;;2.20;99.90;;;;;;5110471;23;20842;-79
2023/03/06 06:02:40;;;;;;;;;;;2.20;99.90;;;;;;4956421;28;19927;-80
2023/03/06 06:05:07;;;;;;;;;;;2.20;99.90;;;;;;4962005;28;20297;-80
2023/03/06 06:07:36;;;;;;;;;;;2.20;99.90;;;;;;4949041;28;19931;-77
2023/03/06 06:10:04;;;;;;;;;;;2.20;99.90;;;;;;4948168;28;19935;-79
2023/03/06 06:12:32;;;;;;;;;;;2.20;99.90;;;;;;4966182;28;19945;-78
2023/03/06 06:15:03;;;;;;;;;;;2.20;99.90;;;;;;4966344;28;19926;-80
2023/03/06 06:17:31;;;;;;;;;;;2.20;99.90;;;;;;4954155;28;20021;-79
2023/03/06 06:19:58;;;;;;;;;;;2.20;99.90;;;;;;4968148;28;19927;-78
2023/03/06 06:22:25;;;;;;;;;;;2.20;99.90;;;;;;4958564;28;19926;-79
2023/03/06 06:24:56;;;;;;;;;;;2.20;99.90;;;;;;4949488;28;19926;-78
2023/03/06 06:27:23;;;;;;;;;;;2.20;99.90;;;;;;4950106;28;20359;-79
2023/03/06 06:29:52;;;;;;;;;;;2.20;99.90;;;;;;4950395;28;19941;-80
2023/03/06 06:32:19;;;;;;;;;;;2.20;99.90;;;;;;4953005;28;20380;-79
2023/03/06 06:34:45;;;;;;;;;;;2.20;99.90;;;;;;4963448;28;19989;-79
2023/03/06 06:37:12;;;;;;;;;;;2.20;99.90;;;;;;4951113;28;19934;-80
2023/03/06 06:39:40;;;;;;;;;;;2.20;99.90;;;;;;4952646;28;20038;-79
2023/03/06 06:42:08;;;;;;;;;;;2.20;99.90;;;;;;4961519;28;19927;-79
2023/03/06 06:44:36;;;;;;;;;;;2.20;99.90;;;;;;4948610;28;19980;-80
2023/03/06 06:47:05;;;;;;;;;;;2.20;99.90;;;;;;4957276;28;20030;-79
2023/03/06 06:49:32;;;;;;;;;;;2.20;99.90;;;;;;4948298;28;19962;-79
2023/03/06 06:51:59;;;;;;;;;;;2.20;99.90;;;;;;4944807;28;19931;-77
2023/03/06 06:54:26;;;;;;;;;;;2.20;99.90;;;;;;4950935;28;20388;-77
2023/03/06 06:56:53;;;;;;;;;;;2.10;99.90;;;;;;4949138;28;19934;-76
2023/03/06 06:59:22;;;;;;;;;;;2.10;99.90;;;;;;4949339;28;19926;-76
2023/03/06 07:01:49;;;;;;;;;;;2.10;99.90;;;;;;4947929;28;19926;-77
2023/03/06 07:04:17;;;;;;;;;;;2.10;99.90;;;;;;4954345;28;20017;-77
2023/03/06 07:06:45;;;;;;;;;;;2.10;99.90;;;;;;4950789;28;19957;-76
2023/03/06 07:09:12;;;;;;;;;;;2.10;99.90;;;;;;4950593;28;19926;-76
2023/03/06 07:11:39;;;;;;;;;;;2.10;99.90;;;;;;4962839;28;19957;-77
2023/03/06 07:14:06;;;;;;;;;;;2.10;99.90;;;;;;4974565;28;19941;-77
2023/03/06 07:16:33;;;;;;;;;;;2.10;99.90;;;;;;4960326;28;19927;-77
2023/03/06 07:18:59;;;;;;;;;;;2.10;99.90;;;;;;4956819;28;19926;-76
2023/03/06 07:21:28;;;;;;;;;;;2.10;99.90;;;;;;4951163;28;19926;-77
2023/03/06 07:23:56;;;;;;;;;;;2.10;99.90;;;;;;4963261;28;19934;-76
2023/03/06 07:26:23;;;;;;;;;;;2.10;99.90;;;;;;4953336;28;20017;-78
2023/03/06 07:28:51;;;;;;;;;;;2.10;99.90;;;;;;4957828;28;19930;-77
2023/03/06 07:31:18;;;;;;;;;;;2.10;99.90;;;;;;4968335;28;19926;-77
2023/03/06 07:33:46;;;;;;;;;;;;;;;;;;4952937;28;20320;-77
2023/03/06 07:36:13;;;;;;;;;;;2.10;99.90;;;;;;4947073;28;20327;-76
2023/03/06 07:38:41;;;;;;;;;;;2.10;99.90;;;;;;4945842;28;19927;-76
2023/03/06 07:41:12;;;;;;;;;;;2.10;99.90;;;;;;4963610;28;19933;-76
2023/03/06 07:43:39;;;;;;;;;;;2.10;99.90;;;;;;4946865;28;19927;-77
2023/03/06 07:46:07;;;;;;;;;;;2.10;99.90;;;;;;4954159;28;19931;-76
2023/03/06 07:48:34;;;;;;;;;;;2.10;99.90;;;;;;4943755;28;20158;-77
2023/03/06 07:51:02;;;;;;;;;;;2.00;99.90;;;;;;4967615;28;19933;-76
2023/03/06 07:53:29;;;;;;;;;;;2.10;99.90;;;;;;4954079;28;19933;-76
2023/03/06 07:55:57;;;;;;;;;;;2.10;99.90;;;;;;4969162;28;19974;-76
2023/03/06 07:58:24;;;;;;;;;;;2.00;99.90;;;;;;4946538;28;19934;-76
2023/03/06 08:00:51;;;;;;;;;;;2.10;99.90;;;;;;4967535;28;19973;-76
2023/03/06 08:03:18;;;;;;;;;;;2.10;99.90;;;;;;4963301;28;20468;-76
2023/03/06 08:05:45;;;;;;;;;;;2.00;99.90;;;;;;4948336;28;19934;-77
2023/03/06 08:08:12;;;;;;;;;;;2.00;99.90;;;;;;4956920;28;19973;-77
2023/03/06 08:10:38;;;;;;;;;;;2.00;99.90;;;;;;4947344;28;19963;-76
2023/03/06 08:13:09;;;;;;;;;;;2.00;99.90;;;;;;4960731;28;19934;-76
2023/03/06 08:15:36;;;;;;;;;;;2.00;99.90;;;;;;4946693;28;20384;-77
2023/03/06 08:18:03;;;;;;;;;;;2.00;99.90;;;;;;4953939;28;20316;-76
2023/03/06 08:20:30;;;;;;;;;;;2.00;99.90;;;;;;4965100;28;19926;-77
2023/03/06 08:22:57;;;;;;;;;;;2.00;99.90;;;;;;4945083;28;19993;-77
2023/03/06 08:25:24;;;;;;;;;;;2.00;99.90;;;;;;4960494;28;19990;-77
2023/03/06 08:27:51;;;;;;;;;;;2.00;99.90;;;;;;4957481;28;19926;-76
2023/03/06 08:30:20;;;;;;;;;;;2.00;99.90;;;;;;4952700;28;19926;-77
2023/03/06 08:32:47;;;;;;;;;;;2.00;99.90;;;;;;4947790;28;20357;-77
2023/03/06 08:35:14;;;;;;;;;;;2.00;99.90;;;;;;4947612;28;19986;-77
2023/03/06 08:37:40;;;;;;;;;;;2.00;99.90;;;;;;4951172;28;19957;-76
2023/03/06 08:40:08;;;;;;;;;;;2.00;99.90;;;;;;4965282;28;19933;-77
2023/03/06 08:42:35;;;;;;;;;;;2.00;99.90;;;;;;4951360;28;19931;-77
2023/03/06 08:45:02;;;;;;;;;;;2.10;99.90;;;;;;4959330;28;20017;-76
2023/03/06 08:47:30;;;;;;;;;;;2.00;99.90;;;;;;4953291;28;19930;-76
2023/03/06 08:49:57;;;;;;;;;;;2.00;99.90;;;;;;4952504;28;20021;-76
2023/03/06 08:52:24;;;;;;;;;;;2.00;99.90;;;;;;4946342;28;19930;-76
2023/03/06 08:54:51;;;;;;;;;;;2.00;99.90;;;;;;4953976;28;19934;-77
2023/03/06 08:57:18;;;;;;;;;;;2.00;99.90;;;;;;4949488;28;19926;-76
2023/03/06 08:59:44;;;;;;;;;;;2.00;99.90;;;;;;4945216;28;19998;-76
2023/03/06 09:02:13;;;;;;;;;;;2.00;99.90;;;;;;4950417;28;19973;-76
2023/03/06 09:04:42;;;;;;;;;;;2.10;99.90;;;;;;4952681;28;19981;-76
2023/03/06 09:07:09;;;;;;;;;;;2.00;99.90;;;;;;4963289;28;20021;-76
2023/03/06 09:09:35;;;;;;;;;;;2.00;99.90;;;;;;4950816;28;19958;-76
2023/03/06 09:12:02;;;;;;;;;;;2.00;99.90;;;;;;4966695;28;19927;-76
2023/03/06 09:14:30;;;;;;;;;;;2.00;99.90;;;;;;4966237;28;19934;-76
2023/03/06 09:16:57;;;;;;;;;;;2.00;99.90;;;;;;4945181;28;19966;-76
2023/03/06 09:19:24;;;;;;;;;;;2.00;99.90;;;;;;4943561;28;19937;-76
2023/03/06 09:21:52;;;;;;;;;;;2.00;99.90;;;;;;4942287;28;19927;-77
2023/03/06 09:24:19;;;;;;;;;;;2.00;99.90;;;;;;4965214;28;20041;-77
2023/03/06 09:26:46;;;;;;;;;;;2.00;99.90;;;;;;4964454;28;19945;-77
2023/03/06 09:29:15;;;;;;;;;;;2.00;99.90;;;;;;4949230;28;19926;-76
2023/03/06 09:31:41;;;;;;;;;;;2.00;99.90;;;;;;4948322;28;19933;-76
2023/03/06 09:34:08;;;;;;;;;;;2.00;99.90;;;;;;4960505;28;20388;-76
2023/03/06 09:36:35;;;;;;;;;;;2.00;99.90;;;;;;4947489;28;19926;-77
2023/03/06 09:39:03;;;;;;;;;;;2.00;99.90;;;;;;4948711;28;19934;-77
2023/03/06 09:41:31;;;;;;;;;;;2.00;99.90;;;;;;4946082;28;19930;-77
2023/03/06 09:44:03;;;;;;;;;;;2.00;99.90;;;;;;4947070;28;19973;-76
2023/03/06 09:46:42;;;;;;;;;;;2.00;99.90;;;;;;4950193;28;19927;-76
2023/03/06 09:49:22;;;;;;;;;;;2.00;99.90;;;;;;4950339;28;19961;-76
2023/03/06 09:51:55;;;;;;;;;;;2.00;99.90;;;;;;4946513;28;19930;-76
2023/03/06 09:54:25;;;;;;;;;;;2.10;99.90;;;;;;4964233;28;19981;-77
2023/03/06 09:56:52;;;;;;;;;;;2.10;99.90;;;;;;4949448;28;19926;-77
2023/03/06 09:59:20;;;;;;;;;;;2.10;99.90;;;;;;4952009;28;19970;-77
2023/03/06 10:01:52;;;;;;;;;;;2.10;99.90;;;;;;4942123;28;20324;-77
2023/03/06 10:04:28;;;;;;;;;;;2.10;99.90;;;;;;4945101;28;19997;-76
2023/03/06 10:06:56;;;;;;;;;;;2.10;99.90;;;;;;4961796;28;20381;-76
2023/03/06 10:09:26;;;;;;;;;;;2.10;99.90;;;;;;4946373;28;20373;-76
2023/03/06 10:11:55;;;;;;;;;;;2.10;99.90;;;;;;4951474;28;19926;-77
2023/03/06 10:14:26;;;;;;;;;;;2.10;99.90;;;;;;4947177;28;19927;-76
2023/03/06 10:16:53;;;;;;;;;;;2.10;99.90;;;;;;4948741;28;19957;-77
2023/03/06 10:19:21;;;;;;;;;;;2.10;99.90;;;;;;4950777;28;19926;-77
2023/03/06 10:21:53;;;;;;;;;;;2.10;99.90;;;;;;4947040;28;19941;-77
2023/03/06 10:24:23;;;;;;;;;;;2.10;99.90;;;;;;4947830;28;19927;-76
2023/03/06 10:26:58;;;;;;;;;;;2.10;99.90;;;;;;4952657;28;19926;-76
2023/03/06 10:29:32;;;;;;;;;;;2.10;99.90;;;;;;4951263;28;19927;-77
2023/03/06 10:32:02;;;;;;;;;;;2.10;99.90;;;;;;4952351;28;19930;-76
2023/03/06 10:34:30;;;;;;;;;;;2.10;99.90;;;;;;4968103;28;19982;-76
2023/03/06 10:36:58;;;;;;;;;;;2.20;99.90;;;;;;4946929;28;20348;-77
2023/03/06 10:39:25;;;;;;;;;;;2.20;99.90;;;;;;4949104;28;19937;-76
2023/03/06 10:41:53;;;;;;;;;;;2.20;99.90;;;;;;4949872;28;20427;-77
2023/03/06 10:44:21;;;;;;;;;;;2.20;99.90;;;;;;4965340;28;19926;-76
2023/03/06 10:46:48;;;;;;;;;;;2.20;99.90;;;;;;4964559;28;19927;-77
2023/03/06 10:49:23;;;;;;;;;;;2.20;99.90;;;;;;4949372;28;20269;-77
2023/03/06 10:51:55;;;;;;;;;;;2.20;99.90;;;;;;4949354;28;20007;-76
2023/03/06 10:54:22;;;;;;;;;;;2.20;99.90;;;;;;4949866;28;19935;-77
2023/03/06 10:56:49;;;;;;;;;;;2.20;99.90;;;;;;4959052;28;19981;-77
2023/03/06 10:59:18;;;;;;;;;;;2.20;99.90;;;;;;4949873;28;19949;-77
2023/03/06 11:01:46;;;;;;;;;;;2.20;99.90;;;;;;4951994;28;19982;-76
2023/03/06 11:04:21;;;;;;;;;;;2.30;99.90;;;;;;4951717;28;19937;-77
2023/03/06 11:06:48;;;;;;;;;;;2.30;99.90;;;;;;4949581;28;19934;-77
2023/03/06 11:09:16;;;;;;;;;;;2.30;99.90;;;;;;4958438;28;19927;-76
2023/03/06 11:11:43;;;;;;;;;;;2.30;99.90;;;;;;4953896;28;20006;-76
2023/03/06 11:14:14;;;;;;;;;;;2.30;99.90;;;;;;4952895;28;19926;-76
2023/03/06 11:16:51;;;;;;;;;;;2.30;99.90;;;;;;4947119;28;20017;-77
2023/03/06 11:19:19;;;;;;;;;;;2.30;99.90;;;;;;4959807;28;19957;-76
2023/03/06 11:21:59;;;;;;;;;;;2.30;99.90;;;;;;4948926;28;20351;-77
2023/03/06 11:24:27;;;;;;;;;;;2.30;99.90;;;;;;4966218;28;20463;-77
2023/03/06 11:26:55;;;;;;;;;;;2.30;99.90;;;;;;4951819;28;19974;-76
2023/03/06 11:29:27;;;;;;;;;;;2.30;99.90;;;;;;4950861;28;19988;-77
2023/03/06 11:31:58;;;;;;;;;;;2.40;99.90;;;;;;4944535;28;20812;-76
2023/03/06 11:34:28;;;;;;;;;;;2.40;99.90;;;;;;4967177;28;19981;-77
2023/03/06 11:36:58;;;;;;;;;;;2.40;99.90;;;;;;4974621;28;19943;-77
2023/03/06 11:39:29;;;;;;;;;;;2.40;99.90;;;;;;4964725;28;19933;-77
2023/03/06 11:41:59;;;;;;;;;;;2.40;99.90;;;;;;4949772;28;19953;-77
2023/03/06 11:44:31;;;;;;;;;;;2.40;99.90;;;;;;4955774;28;19980;-77
2023/03/06 11:47:04;;;;;;;;;;;2.50;99.90;;;;;;4945445;28;20336;-77
2023/03/06 11:49:33;;;;;;;;;;;2.40;99.90;;;;;;4964878;28;19980;-77
2023/03/06 11:52:03;;;;;;;;;;;2.50;99.90;;;;;;4947463;28;19927;-76
2023/03/06 11:54:30;;;;;;;;;;;2.50;99.90;;;;;;4955463;28;19962;-77
2023/03/06 11:56:59;;;;;;;;;;;2.50;99.90;;;;;;4946841;28;19978;-77
2023/03/06 11:59:34;;;;;;;;;;;2.50;99.90;;;;;;4949977;28;19934;-77
2023/03/06 12:02:05;;;;;;;;;;;2.50;99.90;;;;;;4961346;28;19931;-77
2023/03/06 12:04:43;;;;;;;;;;;2.60;99.90;;;;;;4948763;28;19989;-76
2023/03/06 12:07:20;;;;;;;;;;;2.60;99.90;;;;;;4965206;28;19933;-78
2023/03/06 12:09:52;;;;;;;;;;;2.60;99.90;;;;;;4948722;28;19934;-77
2023/03/06 12:12:28;;;;;;;;;;;2.60;99.90;;;;;;4945823;28;19927;-76
2023/03/06 12:15:06;;;;;;;;;;;2.60;99.90;;;;;;4960698;28;20300;-77
2023/03/06 12:17:41;;;;;;;;;;;2.60;99.90;;;;;;4951028;28;19931;-76
2023/03/06 12:20:23;;;;;;;;;;;2.70;99.90;;;;;;4948321;28;20045;-77
2023/03/06 12:22:51;;;;;;;;;;;2.70;99.90;;;;;;4947657;28;19934;-77
2023/03/06 12:25:25;;;;;;;;;;;2.70;99.90;;;;;;4954931;28;19973;-77
2023/03/06 12:27:55;;;;;;;;;;;2.70;99.90;;;;;;4948807;28;19977;-77
2023/03/06 12:30:34;;;;;;;;;;;2.70;99.90;;;;;;4951561;28;19930;-76
2023/03/06 12:33:06;;;;;;;;;;;2.80;99.90;;;;;;4953078;28;19927;-77
2023/03/06 12:35:50;;;;;;;;;;;2.80;99.90;;;;;;4947723;28;20319;-76
2023/03/06 12:38:32;;;;;;;;;;;2.80;99.90;;;;;;4966531;28;19930;-77
2023/03/06 12:41:07;;;;;;;;;;;2.80;99.90;;;;;;4943544;28;19942;-77
2023/03/06 12:43:51;;;;;;;;;;;2.90;99.90;;;;;;4955150;28;19934;-77
2023/03/06 12:46:20;;;;;;;;;;;2.90;99.90;;;;;;4951287;28;19933;-77
2023/03/06 12:48:53;;;;;;;;;;;2.90;99.90;;;;;;4941406;28;19927;-77
2023/03/06 12:51:20;;;;;;;;;;;2.90;99.90;;;;;;4949714;28;20080;-77
2023/03/06 12:53:47;;;;;;;;;;;3.00;99.90;;;;;;4954557;28;19930;-77
2023/03/06 12:56:15;;;;;;;;;;;3.00;99.90;;;;;;4954141;28;20316;-76
2023/03/06 12:58:52;;;;;;;;;;;3.00;99.90;;;;;;4949936;28;19926;-77
2023/03/06 13:01:34;;;;;;;;;;;3.00;99.90;;;;;;4953258;28;19934;-77
2023/03/06 13:04:06;;;;;;;;;;;3.00;99.90;;;;;;4966336;28;19935;-77
2023/03/06 13:06:48;;;;;;;;;;;3.00;99.90;;;;;;4949329;28;19927;-77
2023/03/06 13:09:18;;;;;;;;;;;3.00;99.90;;;;;;4952877;28;19958;-77
2023/03/06 13:11:53;;;;;;;;;;;3.00;99.90;;;;;;4960958;28;19950;-76
2023/03/06 13:14:24;;;;;;;;;;;3.00;99.90;;;;;;4958252;28;19926;-77
2023/03/06 13:16:54;;;;;;;;;;;3.00;99.90;;;;;;4951022;28;19981;-77
2023/03/06 13:19:24;;;;;;;;;;;3.00;99.90;;;;;;4953293;28;19927;-76
2023/03/06 13:22:09;;;;;;;;;;;3.10;99.90;;;;;;4965120;28;19933;-77
2023/03/06 13:24:37;;;;;;;;;;;3.10;99.90;;;;;;4946398;28;19990;-77
2023/03/06 13:27:08;;;;;;;;;;;3.10;99.90;;;;;;4949226;28;20365;-77
2023/03/06 13:29:59;;;;;;;;;;;3.10;99.90;;;;;;4952954;28;19926;-77
2023/03/06 13:32:30;;;;;;;;;;;3.10;99.90;;;;;;4964521;28;19926;-77
2023/03/06 13:34:58;;;;;;;;;;;3.10;99.90;;;;;;4950505;28;19930;-77
2023/03/06 13:37:47;;;;;;;;;;;3.10;99.90;;;;;;4950797;28;19981;-77
2023/03/06 13:40:15;;;;;;;;;;;3.20;99.90;;;;;;4946889;28;19933;-77
2023/03/06 13:42:58;;;;;;;;;;;3.20;99.90;;;;;;4949919;28;19927;-77
2023/03/06 13:45:27;;;;;;;;;;;3.20;99.90;;;;;;4951814;28;20017;-77
2023/03/06 13:47:55;;;;;;;;;;;3.20;99.90;;;;;;4946960;28;19926;-77
2023/03/06 13:50:33;;;;;;;;;;;3.20;99.90;;;;;;4964218;28;19922;-77
2023/03/06 13:53:05;;;;;;;;;;;3.20;99.90;;;;;;4970002;28;19938;-77
2023/03/06 13:55:36;;;;;;;;;;;3.20;99.90;;;;;;4963027;28;19931;-77
2023/03/06 13:58:12;;;;;;;;;;;3.20;99.90;;;;;;4947075;28;19941;-77
2023/03/06 14:01:00;;;;;;;;;;;3.20;99.90;;;;;;4963647;28;19972;-77
2023/03/06 14:03:46;;;;;;;;;;;3.20;99.90;;;;;;4949774;28;20389;-77
2023/03/06 14:06:34;;;;;;;;;;;3.30;99.90;;;;;;4948093;28;19986;-77
2023/03/06 14:09:07;;;;;;;;;;;3.30;99.90;;;;;;4950689;28;19930;-76
2023/03/06 14:11:34;;;;;;;;;;;3.30;99.90;;;;;;4950165;28;19990;-77
2023/03/06 14:14:01;;;;;;;;;;;3.30;99.90;;;;;;4947066;28;20009;-77
2023/03/06 14:16:29;;;;;;;;;;;3.30;99.90;;;;;;4946430;28;20332;-77
2023/03/06 14:18:57;;;;;;;;;;;3.30;99.90;;;;;;4963744;28;19936;-76
2023/03/06 14:21:25;;;;;;;;;;;3.30;99.90;;;;;;4947377;28;19962;-77
2023/03/06 14:23:57;;;;;;;;;;;3.30;99.90;;;;;;4947116;28;19933;-77
2023/03/06 14:26:26;;;;;;;;;;;3.30;99.90;;;;;;4950051;28;19926;-77
2023/03/06 14:28:57;;;;;;;;;;;3.30;99.90;;;;;;4948911;28;19930;-76
2023/03/06 14:31:24;;;;;;;;;;;3.40;99.90;;;;;;4949165;28;20017;-77
2023/03/06 14:33:52;;;;;;;;;;;3.40;99.90;;;;;;4964143;28;20312;-76
2023/03/06 14:36:21;;;;;;;;;;;3.40;99.90;;;;;;4950907;28;20400;-77
2023/03/06 14:38:49;;;;;;;;;;;3.40;99.90;;;;;;4952186;28;19981;-77
2023/03/06 14:41:23;;;;;;;;;;;3.40;99.90;;;;;;4945802;28;19926;-77
2023/03/06 14:43:51;;;;;;;;;;;3.40;99.90;;;;;;4951285;28;20319;-77
2023/03/06 14:46:19;;;;;;;;;;;3.40;99.90;;;;;;4959778;28;20491;-77
2023/03/06 14:48:48;;;;;;;;;;;3.40;99.90;;;;;;4944092;28;19927;-77
2023/03/06 14:51:19;;;;;;;;;;;3.50;99.90;;;;;;4950392;28;19926;-77
2023/03/06 14:53:47;;;;;;;;;;;3.50;99.90;;;;;;4961058;28;20392;-77
2023/03/06 14:56:16;;;;;;;;;;;3.50;99.90;;;;;;4942697;28;19931;-76
2023/03/06 14:58:52;;;;;;;;;;;3.50;99.90;;;;;;4948209;28;19926;-77
2023/03/06 15:01:24;;;;;;;;;;;3.50;99.90;;;;;;4949767;28;19934;-76
2023/03/06 15:03:54;;;;;;;;;;;3.50;99.90;;;;;;4944769;28;19933;-77
2023/03/06 15:06:22;;;;;;;;;;;3.50;99.90;;;;;;4947795;28;19926;-77
2023/03/06 15:08:55;;;;;;;;;;;3.50;99.90;;;;;;4942892;28;19927;-77
2023/03/06 15:11:22;;;;;;;;;;;3.50;99.90;;;;;;4950158;28;19932;-77
2023/03/06 15:13:59;;;;;;;;;;;3.50;99.90;;;;;;4948710;28;19930;-77
2023/03/06 15:16:28;;;;;;;;;;;3.50;99.90;;;;;;4951033;28;19942;-77
2023/03/06 15:18:56;;;;;;;;;;;3.50;99.90;;;;;;4949832;28;19962;-77
2023/03/06 15:21:24;;;;;;;;;;;3.50;99.90;;;;;;4971201;28;19930;-78
2023/03/06 15:23:51;;;;;;;;;;;3.60;99.90;;;;;;4948485;28;19934;-77
2023/03/06 15:26:22;;;;;;;;;;;3.60;99.90;;;;;;4950510;28;20420;-77
2023/03/06 15:28:56;;;;;;;;;;;3.60;99.90;;;;;;4955903;28;19990;-77
2023/03/06 15:31:26;;;;;;;;;;;3.60;99.90;;;;;;4949395;28;19989;-77
2023/03/06 15:34:02;;;;;;;;;;;3.60;99.90;;;;;;4951405;28;20376;-77
2023/03/06 15:36:29;;;;;;;;;;;3.60;99.90;;;;;;4969345;28;19981;-77
2023/03/06 15:38:57;;;;;;;;;;;3.60;99.90;;;;;;4947245;28;20045;-77
2023/03/06 15:41:28;;;;;;;;;;;3.60;99.90;;;;;;4965584;28;19934;-77
2023/03/06 15:43:56;;;;;;;;;;;3.60;99.90;;;;;;4965444;28;19960;-77
2023/03/06 15:46:23;;;;;;;;;;;3.60;99.90;;;;;;4945161;28;20393;-77
2023/03/06 15:48:51;;;;;;;;;;;3.60;99.90;;;;;;4952098;28;19927;-77
2023/03/06 15:51:19;;;;;;;;;;;3.60;99.90;;;;;;4950359;28;19974;-77
2023/03/06 15:53:46;;;;;;;;;;;3.60;99.90;;;;;;4952162;28;20386;-76
2023/03/06 15:56:13;;;;;;;;;;;3.60;99.90;;;;;;4951257;28;19927;-77
2023/03/06 15:58:41;;;;;;;;;;;3.60;99.90;;;;;;4964475;28;19931;-77
2023/03/06 16:01:11;;;;;;;;;;;3.60;99.90;;;;;;4949481;28;19926;-77
2023/03/06 16:03:38;;;;;;;;;;;3.60;99.90;;;;;;4962965;28;19930;-78
2023/03/06 16:06:05;;;;;;;;;;;3.60;99.90;;;;;;4961782;28;20417;-78
2023/03/06 16:08:33;;;;;;;;;;;3.60;99.90;;;;;;4962981;28;19926;-77
2023/03/06 16:11:01;;;;;;;;;;;3.60;99.90;;;;;;4947583;28;20378;-78
2023/03/06 16:13:28;;;;;;;;;;;3.60;99.90;;;;;;4960128;28;19927;-80
2023/03/06 16:15:55;;;;;;;;;;;3.60;99.90;;;;;;4965990;28;19927;-80
2023/03/06 16:18:22;;;;;;;;;;;3.60;99.90;;;;;;4959855;28;19933;-78
2023/03/06 16:20:49;;;;;;;;;;;3.60;99.90;;;;;;4966600;28;20570;-79
2023/03/06 16:23:17;;;;;;;;;;;3.60;99.90;;;;;;4948842;28;19926;-79
2023/03/06 16:25:47;;;;;;;;;;;3.60;99.90;;;;;;4964818;28;19934;-79
2023/03/06 16:28:15;;;;;;;;;;;3.60;99.90;;;;;;4946650;28;19961;-79
2023/03/06 16:30:43;;;;;;;;;;;3.60;99.90;;;;;;4952393;28;20029;-78
2023/03/06 16:33:10;;;;;;;;;;;3.60;99.90;;;;;;4950056;28;19934;-78
2023/03/06 16:35:37;;;;;;;;;;;3.60;99.90;;;;;;4948479;28;20439;-78
2023/03/06 16:38:04;;;;;;;;;;;3.60;99.90;;;;;;4949301;28;19937;-80
2023/03/06 16:40:36;;;;;;;;;;;3.60;99.90;;;;;;4945571;28;19927;-79
2023/03/06 16:43:08;;;;;;;;;;;3.60;99.90;;;;;;4938092;28;19981;-77
2023/03/06 16:45:36;;;;;;;;;;;3.60;99.90;;;;;;4953206;28;19935;-78
2023/03/06 16:48:16;;;;;;;;;;;3.60;99.90;;;;;;4963446;28;19910;-80
2023/03/06 16:50:44;;;;;;;;;;;3.60;99.90;;;;;;4966426;28;19946;-79
2023/03/06 17:02:30;;;;;;;;;;;3.60;99.90;;;;;;4923541;29;19981;-81
2023/03/06 17:20:55;;;;;;;;;;;3.60;99.90;;;;;;4966317;29;20415;-80
2023/03/06 17:23:32;;;;;;;;;;;3.60;99.90;;;;;;4951756;29;19981;-80
2023/03/06 17:26:09;;;;;;;;;;;3.60;99.90;;;;;;4949781;29;19927;-80
2023/03/06 17:28:36;;;;;;;;;;;3.60;99.90;;;;;;4947360;28;19926;-80
2023/03/06 17:31:10;;;;;;;;;;;3.60;99.90;;;;;;4946031;28;19934;-78
2023/03/06 17:33:37;;;;;;;;;;;3.60;99.90;;;;;;4944870;28;20313;-77
2023/03/06 17:36:06;;;;;;;;;;;3.50;99.90;;;;;;4958012;28;19973;-78
2023/03/06 17:38:36;;;;;;;;;;;3.50;99.90;;;;;;4946978;29;20360;-78
2023/03/06 17:41:06;;;;;;;;;;;3.50;99.90;;;;;;4966365;28;19926;-78
2023/03/06 17:43:36;;;;;;;;;;;3.50;99.90;;;;;;4948153;29;19930;-79
2023/03/06 17:46:05;;;;;;;;;;;3.50;99.90;;;;;;4969502;28;19938;-79
2023/03/06 17:48:36;;;;;;;;;;;3.50;99.90;;;;;;4940399;29;19950;-80
2023/03/06 17:51:06;;;;;;;;;;;3.50;99.90;;;;;;4952242;29;19926;-78
2023/03/06 17:53:37;;;;;;;;;;;3.50;99.90;;;;;;4950332;28;20385;-79
2023/03/06 17:56:08;;;;;;;;;;;3.50;99.90;;;;;;4950923;29;20017;-80
2023/03/06 17:58:39;;;;;;;;;;;3.50;99.90;;;;;;4951529;28;19982;-80
2023/03/06 18:01:11;;;;;;;;;;;3.50;99.90;;;;;;4934839;29;19986;-79
2023/03/06 18:03:38;;;;;;;;;;;3.50;99.90;;;;;;4948595;28;19926;-78
2023/03/06 18:06:09;;;;;;;;;;;3.50;99.90;;;;;;4938886;29;20064;-80
2023/03/06 18:08:37;;;;;;;;;;;3.50;99.90;;;;;;4945158;29;19927;-78
2023/03/06 18:11:08;;;;;;;;;;;3.50;99.90;;;;;;4932993;29;20381;-80
2023/03/06 18:16:13;;;;;;;;;;;3.40;99.90;;;;;;4977908;28;19926;-81
2023/03/06 18:18:40;;;;;;;;;;;3.40;99.90;;;;;;4990929;28;19953;-80
2023/03/06 18:21:19;;;;;;;;;;;3.40;99.90;;;;;;5006948;28;19972;-80
2023/03/06 18:23:48;;;;;;;;;;;3.40;99.90;;;;;;4974464;28;21034;-79
2023/03/06 18:26:26;;;;;;;;;;;;;;;;;;;;;
2023/03/06 18:29:07;;;;;;;;;;;3.40;99.90;;;;;;4966489;28;19933;-81
2023/03/06 18:31:35;;;;;;;;;;;3.40;99.90;;;;;;4968091;28;19937;-78
2023/03/06 18:34:04;;;;;;;;;;;3.40;99.90;;;;;;4962668;28;19936;-79
2023/03/06 18:36:31;;;;;;;;;;;3.40;99.90;;;;;;4963484;28;19926;-79
2023/03/06 18:39:02;;;;;;;;;;;3.40;99.90;;;;;;4983784;28;20353;-81
2023/03/06 18:41:31;;;;;;;;;;;3.40;99.90;;;;;;4974981;28;19934;-81
2023/03/06 18:43:59;;;;;;;;;;;3.40;99.90;;;;;;4972937;28;19935;-80
2023/03/06 18:46:29;;;;;;;;;;;3.40;99.90;;;;;;4967105;28;20653;-78
2023/03/06 18:48:56;;;;;;;;;;;3.40;99.90;;;;;;4966727;28;19935;-79
2023/03/06 18:51:23;;;;;;;;;;;3.40;99.90;;;;;;4991537;28;19981;-79
2023/03/06 18:53:54;;;;;;;;;;;3.40;99.90;;;;;;4972610;28;20020;-79
2023/03/06 18:56:24;;;;;;;;;;;3.40;99.90;;;;;;4993184;28;19937;-78
2023/03/06 18:58:52;;;;;;;;;;;3.40;99.90;;;;;;4966953;28;19930;-79
2023/03/06 19:01:22;;;;;;;;;;;3.40;99.90;;;;;;4957501;28;19994;-80
2023/03/06 19:03:51;;;;;;;;;;;3.40;99.90;;;;;;4985171;28;19977;-79
2023/03/06 19:06:19;;;;;;;;;;;3.40;99.90;;;;;;4969067;28;19934;-79
2023/03/06 19:08:45;;;;;;;;;;;3.30;99.90;;;;;;4984171;28;19926;-79
2023/03/06 19:11:13;;;;;;;;;;;3.30;99.90;;;;;;4976638;28;19944;-78
2023/03/06 19:13:41;;;;;;;;;;;3.30;99.90;;;;;;4966948;28;20024;-80
2023/03/06 19:16:09;;;;;;;;;;;3.30;99.90;;;;;;4960756;28;19933;-79
2023/03/06 19:18:37;;;;;;;;;;;3.30;99.90;;;;;;4957786;28;20414;-79
2023/03/06 19:21:08;;;;;;;;;;;3.30;99.90;;;;;;4951850;28;20301;-79
2023/03/06 19:23:35;;;;;;;;;;;3.30;99.90;;;;;;4953068;28;20036;-78
2023/03/06 19:26:02;;;;;;;;;;;3.30;99.90;;;;;;4978279;28;19934;-79
2023/03/06 19:28:29;;;;;;;;;;;3.30;99.90;;;;;;4965955;28;19934;-79
2023/03/06 19:30:57;;;;;;;;;;;3.30;99.90;;;;;;4958509;28;19978;-79
2023/03/06 19:33:24;;;;;;;;;;;3.30;99.90;;;;;;4977686;28;19930;-79
2023/03/06 19:35:51;;;;;;;;;;;3.30;99.90;;;;;;4966248;28;19927;-79
2023/03/06 19:38:18;;;;;;;;;;;3.30;99.90;;;;;;4963617;28;19930;-78
2023/03/06 19:40:48;;;;;;;;;;;3.30;99.90;;;;;;4960130;28;19934;-79
2023/03/06 19:43:15;;;;;;;;;;;3.30;99.90;;;;;;4963185;28;20439;-78
2023/03/06 19:45:42;;;;;;;;;;;3.30;99.90;;;;;;4977030;28;20455;-79
2023/03/06 19:48:11;;;;;;;;;;;3.30;99.90;;;;;;4965410;28;19973;-79
2023/03/06 19:50:38;;;;;;;;;;;3.30;99.90;;;;;;4967990;28;19973;-79
2023/03/06 19:53:06;;;;;;;;;;;3.30;99.90;;;;;;4964729;28;20013;-78
2023/03/06 19:55:33;;;;;;;;;;;3.30;99.90;;;;;;4965799;28;19926;-78
2023/03/06 19:58:00;;;;;;;;;;;3.30;99.90;;;;;;4976252;28;20036;-78
2023/03/06 20:00:27;;;;;;;;;;;3.30;99.90;;;;;;4967904;28;19935;-78
2023/03/06 20:02:54;;;;;;;;;;;3.30;99.90;;;;;;4974927;28;19937;-79
2023/03/06 20:05:22;;;;;;;;;;;3.30;99.90;;;;;;4969634;28;19935;-78
2023/03/06 20:07:49;;;;;;;;;;;3.30;99.90;;;;;;4979420;28;19942;-78
2023/03/06 20:10:16;;;;;;;;;;;3.20;99.90;;;;;;4966787;28;19926;-79
2023/03/06 20:12:44;;;;;;;;;;;3.20;99.90;;;;;;4971582;28;19933;-78
2023/03/06 20:15:11;;;;;;;;;;;3.20;99.90;;;;;;4960921;28;20424;-79
2023/03/06 20:17:39;;;;;;;;;;;3.20;99.90;;;;;;4968125;28;19961;-79
2023/03/06 20:20:06;;;;;;;;;;;3.20;99.90;;;;;;4979259;28;19985;-78
2023/03/06 20:22:35;;;;;;;;;;;3.20;99.90;;;;;;4964795;28;19968;-79
2023/03/06 20:25:02;;;;;;;;;;;3.20;99.90;;;;;;4966713;28;19926;-78
2023/03/06 20:27:29;;;;;;;;;;;3.20;99.90;;;;;;4967830;28;19973;-79
2023/03/06 20:29:56;;;;;;;;;;;3.20;99.90;;;;;;4968392;28;19925;-79
2023/03/06 20:32:27;;;;;;;;;;;3.20;99.90;;;;;;4983123;28;19942;-81
2023/03/06 20:34:54;;;;;;;;;;;3.20;99.90;;;;;;4974547;28;19926;-79